Terminal Aerodrome Forecast
Issued by NWS Sterling, VA

Home | Current Version | Previous Version | Text Only | Print | Product List | Glossary On
Versions: 1 2 3 4 5 6 7 8 9 10 11 12 13 14 15 16 17 18 19 20 21
759
FTUS41 KLWX 292342 RRA
TAFMRB
TAF
KMRB 292342Z 3000/3024 08014KT 5SM -SHRA OVC012
     FM300100 06012KT 3SM -DZRA OVC008
     FM301100 06010KT 2SM -DZRA OVC003=

USA.gov is the U.S. government's official web portal to all federal, state and local government web resources and services.